Time;durP1;ratioP1;P1;durP2;ratioP2;P2;SDS_P1;SDS_P2;PMS_P1;PMS_P2;Temp;Humidity;BMP_temperature;BMP_pressure;BME280_temperature;BME280_humidity;BME280_pressure;Samples;Min_cycle;Max_cycle;Signal;HPM_P1;HPM_P2
2022/09/12 00:01:49;;;;;;;;;;;;;;;22.86;51.78;101345.09;5135844;27;20028;-37
2022/09/12 00:04:15;;;;;;;;;;;;;;;22.87;51.95;101345.91;5136926;27;19923;-37
2022/09/12 00:06:41;;;;;;;;;;;;;;;22.87;51.88;101348.69;5139276;27;19949;-39
2022/09/12 00:09:07;;;;;;;;;;;;;;;22.87;51.89;101349.53;5119258;27;19923;-37
2022/09/12 00:11:35;;;;;;;;;;;;;;;22.88;51.68;101347.56;5139602;27;19972;-37
2022/09/12 00:14:01;;;;;;;;;;;;;;;22.88;51.89;101344.78;5117627;27;20076;-37
2022/09/12 00:16:27;;;;;;;;;;;;;;;22.87;51.95;101332.03;5135154;27;19935;-37
2022/09/12 00:18:52;;;;;;;;;;;;;;;22.86;51.88;101333.16;5117666;27;19931;-37
2022/09/12 00:21:18;;;;;;;;;;;;;;;22.86;51.89;101324.84;5140426;27;19931;-37
2022/09/12 00:23:44;;;;;;;;;;;;;;;22.86;51.72;101330.38;5133217;27;19923;-37
2022/09/12 00:26:10;;;;;;;;;;;;;;;22.87;51.75;101329.25;5137787;27;21105;-38
2022/09/12 00:28:36;;;;;;;;;;;;;;;22.86;51.92;101330.38;5122029;27;20350;-37
2022/09/12 00:31:03;;;;;;;;;;;;;;;22.85;51.88;101329.56;5117822;27;19963;-38
2022/09/12 00:33:29;;;;;;;;;;;;;;;22.86;51.86;101325.66;5118797;27;19945;-38
2022/09/12 00:35:55;;;;;;;;;;;;;;;22.86;51.93;101328.44;5133448;27;20009;-37
2022/09/12 00:38:20;;;;;;;;;;;;;;;22.85;51.63;101332.34;5134365;27;19934;-37
2022/09/12 00:40:46;;;;;;;;;;;;;;;22.86;51.85;101331.22;5140189;27;19940;-37
2022/09/12 00:43:14;;;;;;;;;;;;;;;22.85;51.82;101328.75;5131979;27;19924;-37
2022/09/12 00:45:41;;;;;;;;;;;;;;;22.85;51.83;101324.00;5114039;27;20465;-38
2022/09/12 00:48:07;;;;;;;;;;;;;;;22.86;51.75;101319.28;5138072;27;20039;-37
2022/09/12 00:50:33;;;;;;;;;;;;;;;22.86;51.77;101322.06;5139664;27;20018;-37
2022/09/12 00:53:01;;;;;;;;;;;;;;;22.85;51.73;101310.13;5140208;27;19923;-38
2022/09/12 00:55:27;;;;;;;;;;;;;;;22.85;51.88;101307.34;5137251;27;20426;-37
2022/09/12 00:57:55;;;;;;;;;;;;;;;22.86;51.61;101310.94;5136388;27;20025;-37
2022/09/12 01:00:21;;;;;;;;;;;;;;;22.86;51.87;101299.84;5139026;27;20006;-37
2022/09/12 01:02:49;;;;;;;;;;;;;;;22.85;51.95;101307.34;5118552;27;20466;-37
2022/09/12 01:05:15;;;;;;;;;;;;;;;22.85;51.87;101303.75;5135641;27;20015;-38
2022/09/12 01:07:40;;;;;;;;;;;;;;;22.85;51.82;101304.56;5130450;27;19967;-37
2022/09/12 01:10:06;;;;;;;;;;;;;;;22.85;51.83;101303.75;5136017;27;19924;-37
2022/09/12 01:12:33;;;;;;;;;;;;;;;22.84;51.89;101302.94;5136896;27;19970;-37
2022/09/12 01:14:58;;;;;;;;;;;;;;;22.85;51.81;101304.56;5116546;27;19996;-37
2022/09/12 01:17:26;;;;;;;;;;;;;;;22.84;51.93;101307.63;5131177;27;19924;-37
2022/09/12 01:19:59;;;;;;;;;;;;;;;22.86;51.83;101310.94;5131831;27;20018;-37
2022/09/12 01:22:30;;;;;;;;;;;;;;;22.85;51.97;101306.53;5131945;27;20060;-37
2022/09/12 01:25:07;;;;;;;;;;;;;;;22.85;51.82;101304.56;5135444;27;20393;-37
2022/09/12 01:27:39;;;;;;;;;;;;;;;22.85;51.68;101303.75;5130866;27;20360;-37
2022/09/12 01:30:16;;;;;;;;;;;;;;;22.83;51.83;101289.31;5135171;27;20172;-37
2022/09/12 01:32:47;;;;;;;;;;;;;;;22.85;51.80;101298.19;5139753;27;19966;-37
2022/09/12 01:35:31;;;;;;;;;;;;;;;22.85;51.82;101293.47;5135453;27;20068;-37
2022/09/12 01:38:01;;;;;;;;;;;;;;;22.83;51.83;101295.69;5143298;27;19967;-37
2022/09/12 01:40:30;;;;;;;;;;;;;;;22.84;51.96;101291.81;5139245;27;19970;-37
2022/09/12 01:43:02;;;;;;;;;;;;;;;22.83;51.85;101278.22;5141033;27;20026;-37
2022/09/12 01:45:29;;;;;;;;;;;;;;;22.85;51.88;101284.31;5145403;27;20022;-37
2022/09/12 01:47:58;;;;;;;;;;;;;;;22.83;51.81;101281.81;5119025;27;19952;-37
2022/09/12 01:50:24;;;;;;;;;;;;;;;22.85;51.83;101281.53;5122990;27;20014;-37
2022/09/12 01:55:27;;;;;;;;;;;;;;;22.83;51.84;101276.25;5162036;27;19929;-37
2022/09/12 01:57:54;;;;;;;;;;;;;;;22.84;51.81;101283.47;5139616;27;20002;-37
2022/09/12 02:00:19;;;;;;;;;;;;;;;22.83;51.88;101281.81;5155625;27;20381;-37
2022/09/12 02:02:47;;;;;;;;;;;;;;;22.85;51.85;101278.75;5159817;27;20349;-38
2022/09/12 02:05:18;;;;;;;;;;;;;;;22.83;51.81;101272.66;5157056;27;20163;-38
2022/09/12 02:07:44;;;;;;;;;;;;;;;22.82;51.76;101274.59;5159486;27;20413;-37
2022/09/12 02:10:12;;;;;;;;;;;;;;;22.83;51.86;101267.09;5157388;27;19963;-37
2022/09/12 02:12:41;;;;;;;;;;;;;;;22.83;51.83;101265.16;5137684;27;20010;-37
2022/09/12 02:15:07;;;;;;;;;;;;;;;22.84;51.80;101268.75;5159083;27;20006;-37
2022/09/12 02:17:34;;;;;;;;;;;;;;;22.85;51.92;101267.66;5158074;27;19962;-37
2022/09/12 02:20:06;;;;;;;;;;;;;;;22.82;51.92;101263.50;5157200;27;19927;-37
2022/09/12 02:22:31;;;;;;;;;;;;;;;22.84;51.80;101263.19;5157387;27;19967;-37
2022/09/12 02:24:58;;;;;;;;;;;;;;;22.83;51.70;101264.31;5134246;27;19923;-37
2022/09/12 02:27:27;;;;;;;;;;;;;;;22.83;51.89;101265.16;5156194;27;20400;-37
2022/09/12 02:29:52;;;;;;;;;;;;;;;22.85;51.87;101264.88;5158726;27;20337;-37
2022/09/12 02:32:24;;;;;;;;;;;;;;;22.82;51.91;101263.50;5158061;27;19934;-37
2022/09/12 02:34:51;;;;;;;;;;;;;;;22.83;51.77;101264.31;5159851;27;20014;-37
2022/09/12 02:37:22;;;;;;;;;;;;;;;22.82;51.83;101262.69;5156941;27;20391;-38
2022/09/12 02:39:47;;;;;;;;;;;;;;;22.82;51.90;101249.63;5153921;27;20027;-37
2022/09/12 02:42:13;;;;;;;;;;;;;;;22.82;51.85;101252.41;5159127;27;20365;-38
2022/09/12 02:44:39;;;;;;;;;;;;;;;22.83;51.89;101258.78;5157339;27;19930;-38
2022/09/12 02:47:08;;;;;;;;;;;;;;;22.82;51.88;101251.56;5160187;27;19923;-37
2022/09/12 02:49:34;;;;;;;;;;;;;;;22.81;51.84;101247.97;5136298;27;19966;-37
2022/09/12 02:52:00;;;;;;;;;;;;;;;22.83;51.69;101256.00;5157787;27;19931;-37
2022/09/12 02:54:25;;;;;;;;;;;;;;;22.83;51.90;101248.47;5157185;27;19942;-37
2022/09/12 02:56:51;;;;;;;;;;;;;;;22.83;51.77;101242.09;5157831;27;19935;-37
2022/09/12 02:59:17;;;;;;;;;;;;;;;22.81;51.71;101231.31;5155377;27;19931;-38
2022/09/12 03:02:03;;;;;;;;;;;;;;;22.82;51.85;101246.00;5158300;27;20010;-38
2022/09/12 03:07:33;;;;;;;;;;;;;;;22.82;51.66;101246.84;5169821;27;20011;-37
2022/09/12 03:10:02;;;;;;;;;;;;;;;22.82;51.85;101234.91;5147989;27;19966;-37
2022/09/12 03:12:34;;;;;;;;;;;;;;;22.82;51.88;101235.72;5147871;27;19975;-37
2022/09/12 03:15:06;;;;;;;;;;;;;;;22.82;51.83;101235.72;5163941;27;19970;-37
2022/09/12 03:17:52;;;;;;;;;;;;;;;22.83;51.73;101234.59;5162144;27;20010;-38
2022/09/12 03:23:02;;;;;;;;;;;;;;;22.81;51.83;101234.09;5170008;27;19925;-38
2022/09/12 03:25:29;;;;;;;;;;;;;;;22.82;51.68;101235.72;5163068;27;20361;-37
2022/09/12 03:27:57;;;;;;;;;;;;;;;22.82;51.83;101234.91;5148629;27;20096;-38
2022/09/12 03:30:23;;;;;;;;;;;;;;;22.83;51.69;101244.88;5164831;27;20010;-37
2022/09/12 03:32:50;;;;;;;;;;;;;;;22.81;51.90;101242.41;5148154;27;20327;-37
2022/09/12 03:35:16;;;;;;;;;;;;;;;22.82;51.84;101244.06;5147872;27;20025;-37
2022/09/12 03:37:48;;;;;;;;;;;;;;;22.83;51.82;101239.34;5164127;27;19999;-37
2022/09/12 03:40:14;;;;;;;;;;;;;;;22.81;51.75;101236.88;5148538;27;20076;-37
2022/09/12 03:42:40;;;;;;;;;;;;;;;22.80;51.90;101243.56;5144644;27;19927;-37
2022/09/12 03:45:06;;;;;;;;;;;;;;;22.81;51.84;101236.88;5139118;27;19923;-37
2022/09/12 03:47:31;;;;;;;;;;;;;;;22.81;51.71;101234.09;5141901;27;19959;-37
2022/09/12 03:49:57;;;;;;;;;;;;;;;22.81;51.68;101230.50;5140347;27;19931;-37
2022/09/12 03:52:22;;;;;;;;;;;;;;;22.81;51.81;101236.88;5139422;27;20285;-37
2022/09/12 03:54:48;;;;;;;;;;;;;;;22.82;51.76;101234.91;5143998;27;19980;-37
2022/09/12 03:57:14;;;;;;;;;;;;;;;22.81;51.76;101231.31;5134281;27;20365;-37
2022/09/12 03:59:39;;;;;;;;;;;;;;;22.82;51.73;101232.13;5141119;27;19929;-37
2022/09/12 04:02:05;;;;;;;;;;;;;;;22.82;51.82;101232.13;5143266;27;19928;-37
2022/09/12 04:04:30;;;;;;;;;;;;;;;22.80;51.87;101238.00;5138321;27;20361;-37
2022/09/12 04:06:56;;;;;;;;;;;;;;;22.80;51.84;101229.66;5138138;27;19924;-37
2022/09/12 04:09:21;;;;;;;;;;;;;;;22.81;51.76;101222.16;5135704;27;19941;-37
2022/09/12 04:11:47;;;;;;;;;;;;;;;22.82;51.63;101229.34;5136721;27;19943;-37
2022/09/12 04:14:12;;;;;;;;;;;;;;;22.81;51.65;101227.72;5144218;27;19953;-37
2022/09/12 04:16:38;;;;;;;;;;;;;;;22.80;51.84;101224.13;5139042;27;20286;-37
2022/09/12 04:19:04;;;;;;;;;;;;;;;22.79;51.84;101219.66;5135808;27;19923;-37
2022/09/12 04:21:29;;;;;;;;;;;;;;;22.81;51.69;101224.94;5141265;27;19923;-37
2022/09/12 04:23:55;;;;;;;;;;;;;;;22.81;51.85;101219.38;5139675;27;19935;-38
2022/09/12 04:26:21;;;;;;;;;;;;;;;22.82;51.89;101223.81;5138104;27;19923;-37
2022/09/12 04:28:46;;;;;;;;;;;;;;;22.81;51.87;101225.75;5134157;27;19979;-37
2022/09/12 04:31:14;;;;;;;;;;;;;;;22.82;51.89;101223.81;5138505;27;20377;-37
2022/09/12 04:33:40;;;;;;;;;;;;;;;22.81;51.75;101220.19;5138247;27;20334;-37
2022/09/12 04:36:06;;;;;;;;;;;;;;;22.78;51.83;101210.50;5124748;27;19974;-38
2022/09/12 04:38:32;;;;;;;;;;;;;;;22.79;51.85;101220.47;5121207;27;20034;-38
2022/09/12 04:40:57;;;;;;;;;;;;;;;22.79;51.51;101214.09;5126088;27;19923;-38
2022/09/12 04:43:23;;;;;;;;;;;;;;;22.79;51.26;101214.09;5127113;27;19927;-38
2022/09/12 04:45:49;;;;;;;;;;;;;;;22.81;51.37;101216.59;5120218;27;19942;-37
2022/09/12 04:48:14;;;;;;;;;;;;;;;22.79;51.26;101216.88;5123443;27;19927;-37
2022/09/12 04:50:40;;;;;;;;;;;;;;;22.78;51.23;101207.72;5130403;27;19927;-38
2022/09/12 04:53:06;;;;;;;;;;;;;;;22.80;51.33;101215.78;5123699;27;19938;-37
2022/09/12 04:55:32;;;;;;;;;;;;;;;22.79;51.26;101203.81;5123121;27;19958;-38
2022/09/12 04:57:58;;;;;;;;;;;;;;;22.79;51.21;101211.34;5122045;27;19969;-37
2022/09/12 05:00:23;;;;;;;;;;;;;;;22.79;51.29;101208.56;5129736;27;19923;-39
2022/09/12 05:02:49;;;;;;;;;;;;;;;22.79;51.26;101206.59;5121217;28;19928;-37
2022/09/12 05:05:16;;;;;;;;;;;;;;;22.79;51.20;101203.00;5126324;27;19953;-37
2022/09/12 05:07:41;;;;;;;;;;;;;;;22.78;51.33;101204.13;5119018;27;20393;-37
2022/09/12 05:10:07;;;;;;;;;;;;;;;22.77;51.30;101194.97;5125123;27;19930;-38
2022/09/12 05:12:33;;;;;;;;;;;;;;;22.78;51.29;101201.34;5123790;27;20269;-38
2022/09/12 05:14:58;;;;;;;;;;;;;;;22.79;51.27;101194.66;5121504;27;19931;-38
2022/09/12 05:17:24;;;;;;;;;;;;;;;22.78;51.25;101196.63;5116669;27;19981;-38
2022/09/12 05:19:50;;;;;;;;;;;;;;;22.78;50.37;101195.81;5123532;27;19931;-38
2022/09/12 05:22:15;;;;;;;;;;;;;;;22.78;50.01;101201.34;5126559;27;19938;-37
2022/09/12 05:24:42;;;;;;;;;;;;;;;22.75;49.93;101197.25;5123469;27;20063;-38
2022/09/12 05:27:12;;;;;;;;;;;;;;;22.74;49.90;101197.53;5118977;27;19932;-38
2022/09/12 05:29:38;;;;;;;;;;;;;;;22.74;49.84;101203.06;5124712;27;19929;-37
2022/09/12 05:32:03;;;;;;;;;;;;;;;22.74;49.99;101198.34;5122718;27;19927;-38
2022/09/12 05:34:29;;;;;;;;;;;;;;;22.75;50.17;101204.72;5122237;27;19924;-38
2022/09/12 05:36:54;;;;;;;;;;;;;;;22.75;49.99;101200.03;5118586;27;19924;-38
2022/09/12 05:39:20;;;;;;;;;;;;;;;22.76;50.13;101198.06;5123895;27;19923;-38
2022/09/12 05:41:46;;;;;;;;;;;;;;;22.77;50.51;101194.16;5120804;27;19931;-38
2022/09/12 05:44:12;;;;;;;;;;;;;;;22.77;50.30;101196.94;5121953;27;20375;-38
2022/09/12 05:46:40;;;;;;;;;;;;;;;22.76;49.80;101192.50;5118177;27;20374;-38
2022/09/12 05:49:07;;;;;;;;;;;;;;;22.78;50.74;101191.06;5119171;27;20026;-39
2022/09/12 05:51:34;;;;;;;;;;;;;;;22.82;51.09;101196.84;5121170;27;20060;-39
2022/09/12 05:54:00;;;;;;;;;;;;;;;22.83;50.68;101195.72;5118426;27;19982;-40
2022/09/12 05:56:27;;;;;;;;;;;;;;;22.81;50.54;101203.53;5114934;27;20026;-40
2022/09/12 05:58:54;;;;;;;;;;;;;;;22.81;50.83;101208.28;5105892;27;20014;-37
2022/09/12 06:01:20;;;;;;;;;;;;;;;22.80;50.84;101210.22;5103289;27;19947;-38
2022/09/12 06:03:47;;;;;;;;;;;;;;;22.79;50.87;101216.88;5114411;27;19931;-38
2022/09/12 06:06:13;;;;;;;;;;;;;;;22.78;50.61;101221.63;5105733;27;20034;-39
2022/09/12 06:08:40;;;;;;;;;;;;;;;22.78;50.62;101215.25;5106901;27;19931;-38
2022/09/12 06:11:05;;;;;;;;;;;;;;;22.76;50.51;101223.06;5110562;27;19973;-39
2022/09/12 06:13:32;;;;;;;;;;;;;;;22.75;50.48;101219.47;5109152;27;19928;-39
2022/09/12 06:16:01;;;;;;;;;;;;;;;22.76;50.32;101225.84;5109101;27;20018;-39
2022/09/12 06:18:27;;;;;;;;;;;;;;;22.75;50.39;101225.00;5111058;27;20018;-38
2022/09/12 06:20:52;;;;;;;;;;;;;;;22.75;50.26;101227.78;5119471;27;19932;-40
2022/09/12 06:23:18;;;;;;;;;;;;;;;22.76;50.48;101229.44;5116235;27;19935;-38
2022/09/12 06:25:46;;;;;;;;;;;;;;;22.75;50.55;101227.78;5121986;27;19973;-44
2022/09/12 06:28:11;;;;;;;;;;;;;;;22.76;50.46;101223.06;5113529;27;20014;-37
2022/09/12 06:30:37;;;;;;;;;;;;;;;22.76;50.46;101226.66;5110667;27;19939;-39
2022/09/12 06:33:02;;;;;;;;;;;;;;;22.76;50.82;101221.09;5113827;27;19927;-38
2022/09/12 06:35:28;;;;;;;;;;;;;;;22.56;50.72;101226.09;5111055;27;19931;-42
2022/09/12 06:37:54;;;;;;;;;;;;;;;22.59;50.52;101223.53;5114781;27;19924;-40
2022/09/12 06:40:19;;;;;;;;;;;;;;;22.60;50.71;101211.31;5116024;27;19936;-39
2022/09/12 06:42:45;;;;;;;;;;;;;;;22.70;50.46;101218.69;5115079;27;19931;-38
2022/09/12 06:45:10;;;;;;;;;;;;;;;22.74;50.43;101216.97;5114033;27;19931;-38
2022/09/12 06:47:36;;;;;;;;;;;;;;;22.77;50.38;101219.16;5116195;27;19930;-38
2022/09/12 06:50:02;;;;;;;;;;;;;;;22.77;50.32;101219.16;5113982;27;20184;-38
2022/09/12 06:52:28;;;;;;;;;;;;;;;22.78;50.53;101221.63;5114420;27;19931;-39
2022/09/12 06:54:53;;;;;;;;;;;;;;;22.79;50.48;101216.88;5117365;27;20062;-38
2022/09/12 06:57:19;;;;;;;;;;;;;;;22.79;50.55;101219.66;5107113;27;20949;-38
2022/09/12 06:59:44;;;;;;;;;;;;;;;22.47;51.41;101221.19;5102432;27;19939;-42
2022/09/12 07:02:11;;;;;;;;;;;;;;;22.65;51.39;101224.31;5100575;27;19939;-41
2022/09/12 07:04:36;;;;;;;;;;;;;;;22.74;51.13;101214.19;5097499;27;19963;-41
2022/09/12 07:07:02;;;;;;;;;;;;;;;22.77;51.04;101227.47;5097302;27;20253;-41
2022/09/12 07:09:29;;;;;;;;;;;;;;;22.51;51.61;101216.69;5094443;27;19935;-43
2022/09/12 07:11:55;;;;;;;;;;;;;;;22.69;51.26;101225.34;5105987;27;20432;-40
2022/09/12 07:14:20;;;;;;;;;;;;;;;22.47;51.45;101223.13;5111076;27;20293;-44
2022/09/12 07:16:46;;;;;;;;;;;;;;;22.56;51.72;101226.91;5105733;27;21152;-46
2022/09/12 07:19:11;;;;;;;;;;;;;;;22.69;51.30;101225.34;5108928;27;19930;-41
2022/09/12 07:21:38;;;;;;;;;;;;;;;22.74;50.89;101226.09;5112237;27;19931;-43
2022/09/12 07:24:04;;;;;;;;;;;;;;;22.76;50.88;101228.59;5108317;27;19987;-41
2022/09/12 07:26:30;;;;;;;;;;;;;;;22.77;50.97;101231.06;5107583;27;21543;-41
2022/09/12 07:28:56;;;;;;;;;;;;;;;22.81;50.86;101230.50;5107599;27;20389;-40
2022/09/12 07:31:41;;;;;;;;;;;;;;;22.80;51.10;101224.13;5116607;27;20400;-39
2022/09/12 07:34:07;;;;;;;;;;;;;;;22.83;50.87;101222.66;5105106;27;19931;-40
2022/09/12 07:36:33;;;;;;;;;;;;;;;22.81;51.02;101219.38;5107453;27;19931;-40
2022/09/12 07:38:58;;;;;;;;;;;;;;;22.79;51.02;101220.47;5102196;27;19932;-41
2022/09/12 07:41:25;;;;;;;;;;;;;;;22.81;51.02;101219.38;5109491;27;19939;-41
2022/09/12 07:43:52;;;;;;;;;;;;;;;22.80;51.01;101213.00;5106389;27;20417;-42
2022/09/12 07:46:17;;;;;;;;;;;;;;;22.84;51.00;101208.50;5113190;27;20025;-42
2022/09/12 07:48:44;;;;;;;;;;;;;;;22.83;50.86;101203.22;5111566;27;19932;-39
2022/09/12 07:51:10;;;;;;;;;;;;;;;22.82;51.09;101205.19;5116850;27;20413;-39
2022/09/12 07:53:36;;;;;;;;;;;;;;;22.82;50.96;101210.75;5108390;27;19950;-39
2022/09/12 07:56:02;;;;;;;;;;;;;;;22.86;51.08;101216.53;5107691;27;20034;-42
2022/09/12 07:58:29;;;;;;;;;;;;;;;22.85;50.80;101223.22;5117914;27;20472;-39
2022/09/12 08:01:00;;;;;;;;;;;;;;;22.86;51.13;101222.09;5118185;27;20453;-40
2022/09/12 08:03:25;;;;;;;;;;;;;;;22.87;51.11;101213.44;5115814;27;20299;-39
2022/09/12 08:05:51;;;;;;;;;;;;;;;22.88;51.15;101211.50;5110784;27;19924;-42
2022/09/12 08:08:17;;;;;;;;;;;;;;;22.91;51.29;101208.97;5108603;27;19927;-39
2022/09/12 08:10:42;;;;;;;;;;;;;;;22.91;51.26;101206.19;5108550;27;19934;-40
2022/09/12 08:13:08;;;;;;;;;;;;;;;22.91;51.25;101214.53;5111577;27;19931;-41
2022/09/12 08:15:36;;;;;;;;;;;;;;;22.92;51.39;101216.19;5113395;27;19969;-42
2022/09/12 08:18:01;;;;;;;;;;;;;;;22.91;51.35;101233.97;5112751;27;19923;-40
2022/09/12 08:20:27;;;;;;;;;;;;;;;22.91;51.30;101236.75;5115406;27;19924;-40
2022/09/12 08:22:53;;;;;;;;;;;;;;;22.91;51.40;101225.63;5116252;27;20770;-40
2022/09/12 08:25:19;;;;;;;;;;;;;;;22.91;51.26;101222.03;5113995;27;19935;-39
2022/09/12 08:27:45;;;;;;;;;;;;;;;22.94;51.23;101229.78;5110424;27;20317;-40
2022/09/12 08:30:11;;;;;;;;;;;;;;;22.93;51.24;101225.34;5117444;27;19927;-39
2022/09/12 08:32:37;;;;;;;;;;;;;;;22.93;51.31;101230.91;5118764;27;19930;-40
2022/09/12 08:35:03;;;;;;;;;;;;;;;22.93;51.50;101228.97;5107035;27;20344;-39
2022/09/12 08:37:29;;;;;;;;;;;;;;;22.94;51.43;101230.59;5112451;27;19938;-40
2022/09/12 08:39:55;;;;;;;;;;;;;;;22.93;51.40;101225.34;5110815;27;20026;-40
2022/09/12 08:42:32;;;;;;;;;;;;;;;22.94;51.47;101218.66;5118855;27;20360;-43
2022/09/12 08:45:01;;;;;;;;;;;;;;;22.90;51.66;101217.63;5118239;27;20018;-43
2022/09/12 08:47:31;;;;;;;;;;;;;;;22.91;51.71;101216.47;5116749;27;19935;-41
2022/09/12 08:50:16;;;;;;;;;;;;;;;22.91;51.69;101219.25;5121990;27;20428;-40
2022/09/12 08:52:46;;;;;;;;;;;;;;;22.92;51.70;101218.13;5112922;27;20385;-39
2022/09/12 08:55:20;;;;;;;;;;;;;;;22.92;51.63;101213.41;5116858;27;20377;-40
2022/09/12 08:57:46;;;;;;;;;;;;;;;22.91;51.74;101210.94;5119335;27;20023;-41
2022/09/12 09:00:12;;;;;;;;;;;;;;;22.93;51.67;101211.47;5115673;27;20324;-42
2022/09/12 09:02:44;;;;;;;;;;;;;;;22.94;51.65;101213.94;5116684;27;20018;-41
2022/09/12 09:05:13;;;;;;;;;;;;;;;22.93;51.56;101212.28;5117781;27;19928;-40
2022/09/12 09:07:59;;;;;;;;;;;;;;;22.94;51.63;101213.13;5117005;27;20066;-41
2022/09/12 09:10:30;;;;;;;;;;;;;;;22.94;51.72;101202.00;5122505;27;20018;-40
2022/09/12 09:13:06;;;;;;;;;;;;;;;22.93;51.72;101209.53;5121346;27;20361;-40
2022/09/12 09:15:35;;;;;;;;;;;;;;;22.93;51.74;101211.47;5123793;27;20006;-40
2022/09/12 09:18:03;;;;;;;;;;;;;;;22.92;51.68;101207.03;5116427;27;19927;-40
2022/09/12 09:20:32;;;;;;;;;;;;;;;22.95;51.78;101211.97;5115029;27;20013;-44
2022/09/12 09:23:01;;;;;;;;;;;;;;;22.96;51.54;101213.63;5118755;27;20333;-39
2022/09/12 09:25:43;;;;;;;;;;;;;;;22.96;51.74;101213.63;5115957;27;19975;-44
2022/09/12 09:28:18;;;;;;;;;;;;;;;22.96;51.69;101205.28;5116888;27;20473;-39
2022/09/12 09:30:44;;;;;;;;;;;;;;;22.96;51.62;101203.34;5123090;27;20465;-41
2022/09/12 09:33:14;;;;;;;;;;;;;;;22.96;51.74;101196.97;5120815;27;20014;-40
2022/09/12 09:35:44;;;;;;;;;;;;;;;22.95;51.92;101193.38;5115972;27;20363;-40
2022/09/12 09:38:16;;;;;;;;;;;;;;;22.96;51.77;101194.19;5112315;27;20022;-40
2022/09/12 09:41:00;;;;;;;;;;;;;;;22.97;51.69;101190.28;5113592;27;20018;-39
2022/09/12 09:43:27;;;;;;;;;;;;;;;22.97;51.96;101188.34;5114152;27;20019;-40
2022/09/12 09:45:53;;;;;;;;;;;;;;;22.97;51.96;101188.34;5108873;27;19932;-42
2022/09/12 09:48:21;;;;;;;;;;;;;;;22.97;52.01;101184.72;5111076;27;20026;-41
2022/09/12 09:50:48;;;;;;;;;;;;;;;22.97;52.19;101181.94;5114971;27;19990;-42
2022/09/12 09:53:20;;;;;;;;;;;;;;;22.80;53.76;101182.47;5111535;27;19927;-45
2022/09/12 09:55:46;;;;;;;;;;;;;;;22.84;53.73;101171.56;5110098;27;20006;-43
2022/09/12 09:58:26;;;;;;;;;;;;;;;22.93;53.06;101178.16;5117843;27;19927;-40
2022/09/12 10:00:52;;;;;;;;;;;;;;;22.95;52.85;101179.47;5110011;27;20449;-42
2022/09/12 10:03:27;;;;;;;;;;;;;;;23.00;52.77;101164.69;5110374;27;19927;-40
2022/09/12 10:05:53;;;;;;;;;;;;;;;22.98;52.34;101165.00;5113997;27;20042;-40
2022/09/12 10:08:20;;;;;;;;;;;;;;;22.98;52.59;101159.44;5112450;27;20366;-41
2022/09/12 10:13:40;;;;;;;;;;;;;;;22.98;52.68;101165.00;5160413;27;19926;-38
2022/09/12 10:16:15;;;;;;;;;;;;;;;22.97;52.68;101157.81;5136346;27;19977;-38
2022/09/12 10:18:41;;;;;;;;;;;;;;;22.97;52.76;101156.94;5137519;27;19975;-38
2022/09/12 10:21:14;;;;;;;;;;;;;;;22.97;52.54;101156.94;5142135;27;20022;-37
2022/09/12 10:23:40;;;;;;;;;;;;;;;22.98;52.59;101144.72;5145133;27;19937;-37
2022/09/12 10:26:10;;;;;;;;;;;;;;;22.99;52.44;101151.94;5136372;27;19931;-37
2022/09/12 10:28:36;;;;;;;;;;;;;;;22.99;52.44;101147.19;5126105;27;20018;-40
2022/09/12 10:31:02;;;;;;;;;;;;;;;22.99;52.51;101140.81;5139707;27;19969;-37
2022/09/12 10:33:27;;;;;;;;;;;;;;;22.98;52.58;101144.72;5129331;27;19931;-38
2022/09/12 10:35:53;;;;;;;;;;;;;;;22.99;52.42;101135.28;5151118;27;20210;-37
2022/09/12 10:38:23;;;;;;;;;;;;;;;23.00;52.75;101131.34;5151081;27;20013;-38
2022/09/12 10:40:58;;;;;;;;;;;;;;;23.01;52.48;101130.22;5137254;27;20541;-37
2022/09/12 10:43:26;;;;;;;;;;;;;;;23.00;52.50;101125.81;5154129;27;19982;-37
2022/09/12 10:45:55;;;;;;;;;;;;;;;23.01;52.65;101108.00;5155373;27;20099;-39
2022/09/12 10:48:30;;;;;;;;;;;;;;;23.03;52.59;101114.09;5136811;27;20401;-39
2022/09/12 10:50:56;;;;;;;;;;;;;;;23.02;52.39;101113.28;5158795;27;20627;-38
2022/09/12 10:53:22;;;;;;;;;;;;;;;23.03;52.43;101116.88;5138502;27;20026;-39
2022/09/12 10:55:54;;;;;;;;;;;;;;;23.04;52.30;101118.50;5134570;27;20017;-41
2022/09/12 10:58:27;;;;;;;;;;;;;;;23.03;51.79;101112.13;5146289;27;20587;-38
2022/09/12 11:00:56;;;;;;;;;;;;;;;22.82;51.93;101107.19;5155183;27;20012;-43
2022/09/12 11:03:23;;;;;;;;;;;;;;;22.78;52.21;101105.00;5155482;27;20255;-34
2022/09/12 11:06:04;;;;;;;;;;;;;;;22.82;52.07;101101.63;5153650;27;19970;-42
2022/09/12 11:08:49;;;;;;;;;;;;;;;22.70;52.54;101094.56;5151562;27;20029;-41
2022/09/12 11:11:36;;;;;;;;;;;;;;;22.81;52.45;101098.03;5137249;27;20582;-40
2022/09/12 11:14:08;;;;;;;;;;;;;;;22.88;52.46;101094.84;5141913;27;20026;-37
2022/09/12 11:16:37;;;;;;;;;;;;;;;22.98;52.19;101095.56;5154099;27;20054;-37
2022/09/12 11:19:18;;;;;;;;;;;;;;;23.04;51.87;101090.75;5157967;27;20369;-37
2022/09/12 11:24:39;;;;;;;;;;;;;;;23.05;51.72;101084.03;5179582;27;20009;-37
2022/09/12 11:27:11;;;;;;;;;;;;;;;23.06;51.60;101071.84;5168050;27;20394;-37
2022/09/12 11:29:57;;;;;;;;;;;;;;;23.06;51.26;101074.63;5148971;27;20037;-38
2022/09/12 11:32:41;;;;;;;;;;;;;;;23.04;51.05;101071.28;5137918;27;19974;-39
2022/09/12 11:35:13;;;;;;;;;;;;;;;23.07;51.14;101079.03;5150710;27;19967;-38
2022/09/12 11:37:47;;;;;;;;;;;;;;;23.06;51.08;101068.19;5151303;27;20285;-38
2022/09/12 11:40:19;;;;;;;;;;;;;;;23.06;51.14;101070.97;5154153;27;20462;-37
2022/09/12 11:42:45;;;;;;;;;;;;;;;23.05;51.00;101064.59;5157676;27;19923;-40
2022/09/12 11:45:12;;;;;;;;;;;;;;;23.07;50.98;101069.88;5149137;27;20360;-38
2022/09/12 11:47:38;;;;;;;;;;;;;;;23.06;51.30;101063.50;5151800;27;20002;-38
2022/09/12 11:50:04;;;;;;;;;;;;;;;23.07;51.37;101064.31;5154187;27;19958;-38
2022/09/12 11:52:32;;;;;;;;;;;;;;;23.08;51.28;101068.75;5153033;27;19966;-41
2022/09/12 11:55:02;;;;;;;;;;;;;;;23.08;51.46;101057.63;5147606;27;20018;-38
2022/09/12 12:00:26;;;;;;;;;;;;;;;23.09;51.34;101056.50;5153613;27;20386;-37
2022/09/12 12:03:12;;;;;;;;;;;;;;;23.10;51.42;101067.31;5115135;27;20008;-37
2022/09/12 12:05:54;;;;;;;;;;;;;;;23.09;51.18;101053.72;5124038;27;19930;-37
2022/09/12 12:08:22;;;;;;;;;;;;;;;23.10;51.04;101047.88;5143551;27;20361;-37
2022/09/12 12:10:50;;;;;;;;;;;;;;;23.10;51.14;101045.09;5152268;27;20010;-38
2022/09/12 12:13:37;;;;;;;;;;;;;;;23.12;51.24;101040.03;5137388;27;20071;-37
2022/09/12 12:16:05;;;;;;;;;;;;;;;23.14;51.22;101039.72;5118827;27;20060;-38
2022/09/12 12:18:31;;;;;;;;;;;;;;;23.12;51.14;101042.81;5137066;27;19924;-37
2022/09/12 12:21:15;;;;;;;;;;;;;;;23.10;50.92;101031.22;5115538;27;19936;-37
2022/09/12 12:23:40;;;;;;;;;;;;;;;23.12;50.91;101028.13;5134868;27;20019;-38
2022/09/12 12:26:08;;;;;;;;;;;;;;;23.11;50.72;101035.63;5135426;27;20274;-37
2022/09/12 12:31:16;;;;;;;;;;;;;;;23.14;51.07;101031.41;5158353;27;20010;-37
2022/09/12 12:36:32;;;;;;;;;;;;;;;23.16;51.26;101023.59;5166492;27;20025;-37
2022/09/12 12:38:58;;;;;;;;;;;;;;;23.16;51.01;101015.25;5140852;27;20010;-38
2022/09/12 12:41:27;;;;;;;;;;;;;;;23.15;50.91;101008.06;5142198;27;20026;-41
2022/09/12 12:43:55;;;;;;;;;;;;;;;23.15;51.17;101003.34;5159965;27;20251;-39
2022/09/12 12:46:21;;;;;;;;;;;;;;;23.17;51.15;101011.34;5156173;27;20028;-39
2022/09/12 12:49:07;;;;;;;;;;;;;;;23.15;51.18;100997.78;5156968;27;19923;-39
2022/09/12 12:51:34;;;;;;;;;;;;;;;23.14;50.89;100987.78;5150576;27;19973;-39
2022/09/12 12:54:01;;;;;;;;;;;;;;;23.13;50.73;100994.47;5147006;27;20273;-39
2022/09/12 12:56:28;;;;;;;;;;;;;;;23.14;50.99;100990.53;5136249;27;19923;-39
2022/09/12 12:58:57;;;;;;;;;;;;;;;23.11;50.84;100988.41;5155146;27;20019;-39
2022/09/12 13:01:22;;;;;;;;;;;;;;;23.10;50.64;100989.53;5158516;27;20030;-39
2022/09/12 13:03:57;;;;;;;;;;;;;;;23.12;50.79;100989.22;5159254;27;20285;-39